sensor_id;sensor_type;location;lat;lon;timestamp;P1;durP1;ratioP1;P2;durP2;ratioP2
1460;SDS011;724;49.910;12.530;2023-06-10T00:01:26;8.50;;;8.00;;
1460;SDS011;724;49.910;12.530;2023-06-10T00:03:52;8.60;;;8.10;;
1460;SDS011;724;49.910;12.530;2023-06-10T00:06:20;8.60;;;8.10;;
1460;SDS011;724;49.910;12.530;2023-06-10T00:08:49;8.50;;;8.00;;
1460;SDS011;724;49.910;12.530;2023-06-10T00:11:16;8.17;;;7.77;;
1460;SDS011;724;49.910;12.530;2023-06-10T00:13:43;8.53;;;8.03;;
1460;SDS011;724;49.910;12.530;2023-06-10T00:16:10;8.10;;;7.70;;
1460;SDS011;724;49.910;12.530;2023-06-10T00:18:37;7.80;;;7.40;;
1460;SDS011;724;49.910;12.530;2023-06-10T00:21:04;6.80;;;6.40;;
1460;SDS011;724;49.910;12.530;2023-06-10T00:23:32;7.50;;;7.10;;
1460;SDS011;724;49.910;12.530;2023-06-10T00:26:02;7.30;;;6.90;;
1460;SDS011;724;49.910;12.530;2023-06-10T00:28:29;7.30;;;6.90;;
1460;SDS011;724;49.910;12.530;2023-06-10T00:30:56;7.60;;;7.20;;
1460;SDS011;724;49.910;12.530;2023-06-10T00:33:23;7.50;;;7.10;;
1460;SDS011;724;49.910;12.530;2023-06-10T00:35:50;8.00;;;7.60;;
1460;SDS011;724;49.910;12.530;2023-06-10T00:38:17;8.30;;;7.90;;
1460;SDS011;724;49.910;12.530;2023-06-10T00:40:45;8.30;;;7.90;;
1460;SDS011;724;49.910;12.530;2023-06-10T00:43:12;7.50;;;7.10;;
1460;SDS011;724;49.910;12.530;2023-06-10T00:45:39;7.60;;;7.20;;
1460;SDS011;724;49.910;12.530;2023-06-10T00:48:06;7.23;;;6.83;;
1460;SDS011;724;49.910;12.530;2023-06-10T00:50:33;7.77;;;7.37;;
1460;SDS011;724;49.910;12.530;2023-06-10T00:53:00;8.20;;;7.80;;
1460;SDS011;724;49.910;12.530;2023-06-10T00:55:27;7.80;;;7.40;;
1460;SDS011;724;49.910;12.530;2023-06-10T00:57:56;7.57;;;7.17;;
1460;SDS011;724;49.910;12.530;2023-06-10T01:00:22;8.00;;;7.60;;
1460;SDS011;724;49.910;12.530;2023-06-10T01:02:49;7.70;;;7.30;;
1460;SDS011;724;49.910;12.530;2023-06-10T01:05:17;7.60;;;7.20;;
1460;SDS011;724;49.910;12.530;2023-06-10T01:07:47;7.20;;;6.80;;
1460;SDS011;724;49.910;12.530;2023-06-10T01:10:19;7.80;;;7.40;;
1460;SDS011;724;49.910;12.530;2023-06-10T01:12:52;7.73;;;7.33;;
1460;SDS011;724;49.910;12.530;2023-06-10T01:15:27;7.40;;;7.00;;
1460;SDS011;724;49.910;12.530;2023-06-10T01:17:55;6.70;;;6.30;;
1460;SDS011;724;49.910;12.530;2023-06-10T01:20:24;6.90;;;6.50;;
1460;SDS011;724;49.910;12.530;2023-06-10T01:22:53;6.70;;;6.30;;
1460;SDS011;724;49.910;12.530;2023-06-10T01:25:20;6.60;;;6.20;;
1460;SDS011;724;49.910;12.530;2023-06-10T01:27:52;7.20;;;6.80;;
1460;SDS011;724;49.910;12.530;2023-06-10T01:30:25;7.00;;;6.60;;
1460;SDS011;724;49.910;12.530;2023-06-10T01:32:58;7.40;;;7.00;;
1460;SDS011;724;49.910;12.530;2023-06-10T01:35:26;7.70;;;7.30;;
1460;SDS011;724;49.910;12.530;2023-06-10T01:37:56;7.90;;;7.50;;
1460;SDS011;724;49.910;12.530;2023-06-10T01:40:26;6.97;;;6.57;;
1460;SDS011;724;49.910;12.530;2023-06-10T01:42:54;7.80;;;7.40;;
1460;SDS011;724;49.910;12.530;2023-06-10T01:45:20;7.10;;;6.70;;
1460;SDS011;724;49.910;12.530;2023-06-10T01:47:47;6.90;;;6.50;;
1460;SDS011;724;49.910;12.530;2023-06-10T01:50:14;7.13;;;6.73;;
1460;SDS011;724;49.910;12.530;2023-06-10T01:52:41;7.40;;;7.00;;
1460;SDS011;724;49.910;12.530;2023-06-10T01:55:09;7.10;;;6.70;;
1460;SDS011;724;49.910;12.530;2023-06-10T01:57:36;7.20;;;6.80;;
1460;SDS011;724;49.910;12.530;2023-06-10T02:00:03;7.37;;;6.97;;
1460;SDS011;724;49.910;12.530;2023-06-10T02:02:30;7.03;;;6.63;;
1460;SDS011;724;49.910;12.530;2023-06-10T02:04:57;6.70;;;6.30;;
1460;SDS011;724;49.910;12.530;2023-06-10T02:07:24;6.43;;;6.03;;
1460;SDS011;724;49.910;12.530;2023-06-10T02:09:50;6.60;;;6.20;;
1460;SDS011;724;49.910;12.530;2023-06-10T02:12:18;6.63;;;6.23;;
1460;SDS011;724;49.910;12.530;2023-06-10T02:14:45;6.93;;;6.53;;
1460;SDS011;724;49.910;12.530;2023-06-10T02:17:12;7.30;;;6.90;;
1460;SDS011;724;49.910;12.530;2023-06-10T02:19:39;7.40;;;7.00;;
1460;SDS011;724;49.910;12.530;2023-06-10T02:22:08;7.50;;;7.10;;
1460;SDS011;724;49.910;12.530;2023-06-10T02:24:35;7.70;;;7.30;;
1460;SDS011;724;49.910;12.530;2023-06-10T02:27:03;7.70;;;7.30;;
1460;SDS011;724;49.910;12.530;2023-06-10T02:29:33;7.30;;;6.90;;
1460;SDS011;724;49.910;12.530;2023-06-10T02:32:00;6.70;;;6.30;;
1460;SDS011;724;49.910;12.530;2023-06-10T02:34:28;7.00;;;6.60;;
1460;SDS011;724;49.910;12.530;2023-06-10T02:36:54;6.00;;;5.70;;
1460;SDS011;724;49.910;12.530;2023-06-10T02:39:21;7.50;;;7.10;;
1460;SDS011;724;49.910;12.530;2023-06-10T02:41:48;7.60;;;7.20;;
1460;SDS011;724;49.910;12.530;2023-06-10T02:44:15;7.40;;;7.00;;
1460;SDS011;724;49.910;12.530;2023-06-10T02:46:44;7.30;;;6.90;;
1460;SDS011;724;49.910;12.530;2023-06-10T02:49:10;7.20;;;6.80;;
1460;SDS011;724;49.910;12.530;2023-06-10T02:51:37;7.50;;;7.10;;
1460;SDS011;724;49.910;12.530;2023-06-10T02:54:04;7.70;;;7.30;;
1460;SDS011;724;49.910;12.530;2023-06-10T02:56:31;8.10;;;7.70;;
1460;SDS011;724;49.910;12.530;2023-06-10T02:58:58;8.43;;;7.97;;
1460;SDS011;724;49.910;12.530;2023-06-10T03:01:26;8.00;;;7.60;;
1460;SDS011;724;49.910;12.530;2023-06-10T03:03:54;7.87;;;7.47;;
1460;SDS011;724;49.910;12.530;2023-06-10T03:06:21;6.90;;;6.50;;
1460;SDS011;724;49.910;12.530;2023-06-10T03:08:49;6.80;;;6.40;;
1460;SDS011;724;49.910;12.530;2023-06-10T03:11:16;6.80;;;6.40;;
1460;SDS011;724;49.910;12.530;2023-06-10T03:13:44;7.20;;;6.80;;
1460;SDS011;724;49.910;12.530;2023-06-10T03:16:11;6.97;;;6.57;;
1460;SDS011;724;49.910;12.530;2023-06-10T03:18:38;6.60;;;6.20;;
1460;SDS011;724;49.910;12.530;2023-06-10T03:21:06;6.80;;;6.40;;
1460;SDS011;724;49.910;12.530;2023-06-10T03:23:33;6.90;;;6.50;;
1460;SDS011;724;49.910;12.530;2023-06-10T03:26:00;7.00;;;6.60;;
1460;SDS011;724;49.910;12.530;2023-06-10T03:28:27;6.80;;;6.40;;
1460;SDS011;724;49.910;12.530;2023-06-10T03:30:54;7.20;;;6.80;;
1460;SDS011;724;49.910;12.530;2023-06-10T03:33:21;7.60;;;7.20;;
1460;SDS011;724;49.910;12.530;2023-06-10T03:35:48;7.50;;;7.10;;
1460;SDS011;724;49.910;12.530;2023-06-10T03:38:16;7.20;;;6.80;;
1460;SDS011;724;49.910;12.530;2023-06-10T03:40:43;7.27;;;6.87;;
1460;SDS011;724;49.910;12.530;2023-06-10T03:43:09;7.13;;;6.73;;
1460;SDS011;724;49.910;12.530;2023-06-10T03:45:36;7.40;;;7.00;;
1460;SDS011;724;49.910;12.530;2023-06-10T03:48:03;7.20;;;6.80;;
1460;SDS011;724;49.910;12.530;2023-06-10T03:50:31;7.00;;;6.60;;
1460;SDS011;724;49.910;12.530;2023-06-10T03:52:58;7.20;;;6.80;;
1460;SDS011;724;49.910;12.530;2023-06-10T03:55:26;7.50;;;7.10;;
1460;SDS011;724;49.910;12.530;2023-06-10T03:57:52;7.93;;;7.53;;
1460;SDS011;724;49.910;12.530;2023-06-10T04:00:19;7.60;;;7.20;;
1460;SDS011;724;49.910;12.530;2023-06-10T04:02:47;7.03;;;6.63;;
1460;SDS011;724;49.910;12.530;2023-06-10T04:05:17;7.07;;;6.67;;
1460;SDS011;724;49.910;12.530;2023-06-10T04:07:46;7.00;;;6.60;;
1460;SDS011;724;49.910;12.530;2023-06-10T04:10:13;6.70;;;6.30;;
1460;SDS011;724;49.910;12.530;2023-06-10T04:12:42;7.03;;;6.63;;
1460;SDS011;724;49.910;12.530;2023-06-10T04:15:10;7.10;;;6.70;;
1460;SDS011;724;49.910;12.530;2023-06-10T04:17:37;7.27;;;6.87;;
1460;SDS011;724;49.910;12.530;2023-06-10T04:20:04;7.10;;;6.70;;
1460;SDS011;724;49.910;12.530;2023-06-10T04:22:34;7.10;;;6.70;;
1460;SDS011;724;49.910;12.530;2023-06-10T04:25:01;7.60;;;7.20;;
1460;SDS011;724;49.910;12.530;2023-06-10T04:27:28;7.80;;;7.40;;
1460;SDS011;724;49.910;12.530;2023-06-10T04:29:56;7.87;;;7.47;;
1460;SDS011;724;49.910;12.530;2023-06-10T04:32:23;7.90;;;7.50;;
1460;SDS011;724;49.910;12.530;2023-06-10T04:34:51;8.03;;;7.63;;
1460;SDS011;724;49.910;12.530;2023-06-10T04:37:18;7.80;;;7.40;;
1460;SDS011;724;49.910;12.530;2023-06-10T04:39:45;8.10;;;7.70;;
1460;SDS011;724;49.910;12.530;2023-06-10T04:42:12;8.60;;;8.10;;
1460;SDS011;724;49.910;12.530;2023-06-10T04:44:38;8.70;;;8.20;;
1460;SDS011;724;49.910;12.530;2023-06-10T04:47:07;8.30;;;7.90;;
1460;SDS011;724;49.910;12.530;2023-06-10T04:49:34;8.00;;;7.60;;
1460;SDS011;724;49.910;12.530;2023-06-10T04:52:00;8.30;;;7.90;;
1460;SDS011;724;49.910;12.530;2023-06-10T04:54:29;8.20;;;7.80;;
1460;SDS011;724;49.910;12.530;2023-06-10T04:56:57;8.27;;;7.87;;
1460;SDS011;724;49.910;12.530;2023-06-10T04:59:24;8.60;;;8.10;;
1460;SDS011;724;49.910;12.530;2023-06-10T05:01:51;8.57;;;8.07;;
1460;SDS011;724;49.910;12.530;2023-06-10T05:04:19;8.97;;;8.47;;
1460;SDS011;724;49.910;12.530;2023-06-10T05:06:45;8.80;;;8.30;;
1460;SDS011;724;49.910;12.530;2023-06-10T05:09:12;8.83;;;8.33;;
1460;SDS011;724;49.910;12.530;2023-06-10T05:11:39;9.30;;;8.80;;
1460;SDS011;724;49.910;12.530;2023-06-10T05:14:06;9.70;;;9.20;;
1460;SDS011;724;49.910;12.530;2023-06-10T05:16:33;9.80;;;9.30;;
1460;SDS011;724;49.910;12.530;2023-06-10T05:18:59;9.80;;;9.30;;
1460;SDS011;724;49.910;12.530;2023-06-10T05:21:27;9.80;;;9.30;;
1460;SDS011;724;49.910;12.530;2023-06-10T05:23:54;9.73;;;9.23;;
1460;SDS011;724;49.910;12.530;2023-06-10T05:26:21;9.90;;;9.40;;
1460;SDS011;724;49.910;12.530;2023-06-10T05:28:48;10.20;;;9.70;;
1460;SDS011;724;49.910;12.530;2023-06-10T05:31:14;10.20;;;9.70;;
1460;SDS011;724;49.910;12.530;2023-06-10T05:33:41;10.03;;;9.53;;
1460;SDS011;724;49.910;12.530;2023-06-10T05:36:08;10.00;;;9.50;;
1460;SDS011;724;49.910;12.530;2023-06-10T05:38:36;9.90;;;9.40;;
1460;SDS011;724;49.910;12.530;2023-06-10T05:41:03;10.20;;;9.70;;
1460;SDS011;724;49.910;12.530;2023-06-10T05:43:29;10.20;;;9.70;;
1460;SDS011;724;49.910;12.530;2023-06-10T05:45:56;10.00;;;9.50;;
1460;SDS011;724;49.910;12.530;2023-06-10T05:48:23;10.20;;;9.70;;
1460;SDS011;724;49.910;12.530;2023-06-10T05:50:50;10.20;;;9.70;;
1460;SDS011;724;49.910;12.530;2023-06-10T05:53:16;10.10;;;9.60;;
1460;SDS011;724;49.910;12.530;2023-06-10T05:55:45;10.20;;;9.70;;
1460;SDS011;724;49.910;12.530;2023-06-10T05:58:12;10.30;;;9.80;;
1460;SDS011;724;49.910;12.530;2023-06-10T06:00:40;10.00;;;9.50;;
1460;SDS011;724;49.910;12.530;2023-06-10T06:03:07;10.30;;;9.80;;
1460;SDS011;724;49.910;12.530;2023-06-10T06:05:34;10.17;;;9.67;;
1460;SDS011;724;49.910;12.530;2023-06-10T06:08:02;10.17;;;9.67;;
1460;SDS011;724;49.910;12.530;2023-06-10T06:10:29;9.70;;;9.20;;
1460;SDS011;724;49.910;12.530;2023-06-10T06:12:57;10.03;;;9.53;;
1460;SDS011;724;49.910;12.530;2023-06-10T06:15:24;10.20;;;9.70;;
1460;SDS011;724;49.910;12.530;2023-06-10T06:17:51;10.07;;;9.57;;
1460;SDS011;724;49.910;12.530;2023-06-10T06:20:18;10.00;;;9.50;;
1460;SDS011;724;49.910;12.530;2023-06-10T06:22:45;10.67;;;10.07;;
1460;SDS011;724;49.910;12.530;2023-06-10T06:25:11;10.60;;;10.00;;
1460;SDS011;724;49.910;12.530;2023-06-10T06:27:38;10.40;;;9.90;;
1460;SDS011;724;49.910;12.530;2023-06-10T06:30:07;10.83;;;10.23;;
1460;SDS011;724;49.910;12.530;2023-06-10T06:32:34;10.67;;;10.07;;
1460;SDS011;724;49.910;12.530;2023-06-10T06:35:01;11.00;;;10.40;;
1460;SDS011;724;49.910;12.530;2023-06-10T06:37:29;10.90;;;10.30;;
1460;SDS011;724;49.910;12.530;2023-06-10T06:39:57;11.43;;;10.83;;
1460;SDS011;724;49.910;12.530;2023-06-10T06:42:24;11.00;;;10.40;;
1460;SDS011;724;49.910;12.530;2023-06-10T06:44:51;10.90;;;10.30;;
1460;SDS011;724;49.910;12.530;2023-06-10T06:47:19;10.60;;;10.00;;
1460;SDS011;724;49.910;12.530;2023-06-10T06:49:46;10.60;;;10.00;;
1460;SDS011;724;49.910;12.530;2023-06-10T06:52:13;10.80;;;10.20;;
1460;SDS011;724;49.910;12.530;2023-06-10T06:54:39;10.10;;;9.60;;
1460;SDS011;724;49.910;12.530;2023-06-10T06:57:06;10.73;;;10.13;;
1460;SDS011;724;49.910;12.530;2023-06-10T06:59:33;10.70;;;10.10;;
1460;SDS011;724;49.910;12.530;2023-06-10T07:02:00;10.40;;;9.90;;
1460;SDS011;724;49.910;12.530;2023-06-10T07:04:29;10.70;;;10.10;;
1460;SDS011;724;49.910;12.530;2023-06-10T07:06:56;10.53;;;9.97;;
1460;SDS011;724;49.910;12.530;2023-06-10T07:09:23;10.33;;;9.83;;
1460;SDS011;724;49.910;12.530;2023-06-10T07:11:49;10.20;;;9.70;;
1460;SDS011;724;49.910;12.530;2023-06-10T07:14:16;10.53;;;9.97;;
1460;SDS011;724;49.910;12.530;2023-06-10T07:16:43;10.73;;;10.13;;
1460;SDS011;724;49.910;12.530;2023-06-10T07:19:11;10.20;;;9.70;;
1460;SDS011;724;49.910;12.530;2023-06-10T07:21:39;10.20;;;9.70;;
1460;SDS011;724;49.910;12.530;2023-06-10T07:24:06;10.10;;;9.60;;
1460;SDS011;724;49.910;12.530;2023-06-10T07:26:33;10.10;;;9.60;;
1460;SDS011;724;49.910;12.530;2023-06-10T07:28:59;9.90;;;9.40;;
1460;SDS011;724;49.910;12.530;2023-06-10T07:31:26;10.40;;;9.90;;
1460;SDS011;724;49.910;12.530;2023-06-10T07:33:53;9.63;;;9.13;;
1460;SDS011;724;49.910;12.530;2023-06-10T07:36:19;9.77;;;9.27;;
1460;SDS011;724;49.910;12.530;2023-06-10T07:38:48;10.30;;;9.80;;
1460;SDS011;724;49.910;12.530;2023-06-10T07:41:14;10.17;;;9.67;;
1460;SDS011;724;49.910;12.530;2023-06-10T07:43:43;10.30;;;9.80;;
1460;SDS011;724;49.910;12.530;2023-06-10T07:46:09;10.80;;;10.20;;
1460;SDS011;724;49.910;12.530;2023-06-10T07:48:36;10.00;;;9.50;;
1460;SDS011;724;49.910;12.530;2023-06-10T07:51:03;10.40;;;9.90;;
1460;SDS011;724;49.910;12.530;2023-06-10T07:53:30;10.53;;;9.97;;
1460;SDS011;724;49.910;12.530;2023-06-10T07:55:58;10.67;;;10.07;;
1460;SDS011;724;49.910;12.530;2023-06-10T07:58:25;10.40;;;9.90;;
1460;SDS011;724;49.910;12.530;2023-06-10T08:00:51;10.60;;;10.00;;
1460;SDS011;724;49.910;12.530;2023-06-10T08:03:18;10.40;;;9.90;;
1460;SDS011;724;49.910;12.530;2023-06-10T08:05:45;10.20;;;9.70;;
1460;SDS011;724;49.910;12.530;2023-06-10T08:08:12;10.80;;;10.20;;
1460;SDS011;724;49.910;12.530;2023-06-10T08:10:39;10.20;;;9.70;;
1460;SDS011;724;49.910;12.530;2023-06-10T08:13:07;11.13;;;10.53;;
1460;SDS011;724;49.910;12.530;2023-06-10T08:15:34;11.00;;;10.40;;
1460;SDS011;724;49.910;12.530;2023-06-10T08:18:01;11.30;;;10.70;;
1460;SDS011;724;49.910;12.530;2023-06-10T08:20:28;11.10;;;10.50;;
1460;SDS011;724;49.910;12.530;2023-06-10T08:22:55;10.73;;;10.13;;
1460;SDS011;724;49.910;12.530;2023-06-10T08:25:21;11.20;;;10.60;;
1460;SDS011;724;49.910;12.530;2023-06-10T08:27:48;10.90;;;10.30;;
1460;SDS011;724;49.910;12.530;2023-06-10T08:30:17;11.20;;;10.60;;
1460;SDS011;724;49.910;12.530;2023-06-10T08:32:44;11.47;;;10.87;;
1460;SDS011;724;49.910;12.530;2023-06-10T08:35:10;11.70;;;11.10;;
1460;SDS011;724;49.910;12.530;2023-06-10T08:37:37;11.63;;;11.03;;
1460;SDS011;724;49.910;12.530;2023-06-10T08:40:04;11.37;;;10.77;;
1460;SDS011;724;49.910;12.530;2023-06-10T08:42:33;10.70;;;10.10;;
1460;SDS011;724;49.910;12.530;2023-06-10T08:45:05;11.10;;;10.50;;
1460;SDS011;724;49.910;12.530;2023-06-10T08:47:39;11.20;;;10.60;;
1460;SDS011;724;49.910;12.530;2023-06-10T08:50:09;11.10;;;10.50;;
1460;SDS011;724;49.910;12.530;2023-06-10T08:52:36;10.80;;;10.20;;
1460;SDS011;724;49.910;12.530;2023-06-10T08:55:05;11.47;;;10.87;;
1460;SDS011;724;49.910;12.530;2023-06-10T08:57:37;11.10;;;10.50;;
1460;SDS011;724;49.910;12.530;2023-06-10T09:00:04;11.53;;;10.93;;
1460;SDS011;724;49.910;12.530;2023-06-10T09:02:32;11.17;;;10.57;;
1460;SDS011;724;49.910;12.530;2023-06-10T09:05:02;11.63;;;11.03;;
1460;SDS011;724;49.910;12.530;2023-06-10T09:07:29;11.40;;;10.80;;
1460;SDS011;724;49.910;12.530;2023-06-10T09:09:59;10.70;;;10.10;;
1460;SDS011;724;49.910;12.530;2023-06-10T09:12:28;11.30;;;10.70;;
1460;SDS011;724;49.910;12.530;2023-06-10T09:14:55;11.30;;;10.70;;
1460;SDS011;724;49.910;12.530;2023-06-10T09:17:22;10.90;;;10.30;;
1460;SDS011;724;49.910;12.530;2023-06-10T09:19:49;10.70;;;10.10;;
1460;SDS011;724;49.910;12.530;2023-06-10T09:22:20;10.53;;;9.97;;
1460;SDS011;724;49.910;12.530;2023-06-10T09:24:47;10.40;;;9.90;;
1460;SDS011;724;49.910;12.530;2023-06-10T09:27:14;11.13;;;10.53;;
1460;SDS011;724;49.910;12.530;2023-06-10T09:29:48;10.53;;;9.97;;
1460;SDS011;724;49.910;12.530;2023-06-10T09:32:18;10.93;;;10.33;;
1460;SDS011;724;49.910;12.530;2023-06-10T09:34:45;11.10;;;10.50;;
1460;SDS011;724;49.910;12.530;2023-06-10T09:37:12;10.10;;;9.60;;
1460;SDS011;724;49.910;12.530;2023-06-10T09:39:46;10.73;;;10.13;;
1460;SDS011;724;49.910;12.530;2023-06-10T09:42:29;10.23;;;9.73;;
1460;SDS011;724;49.910;12.530;2023-06-10T09:44:59;10.60;;;10.00;;
1460;SDS011;724;49.910;12.530;2023-06-10T09:47:26;10.90;;;10.30;;
1460;SDS011;724;49.910;12.530;2023-06-10T09:49:53;10.60;;;10.00;;
1460;SDS011;724;49.910;12.530;2023-06-10T09:52:23;10.27;;;9.77;;
1460;SDS011;724;49.910;12.530;2023-06-10T09:54:52;11.10;;;10.50;;
1460;SDS011;724;49.910;12.530;2023-06-10T09:57:20;10.90;;;10.30;;
1460;SDS011;724;49.910;12.530;2023-06-10T09:59:47;10.20;;;9.70;;
1460;SDS011;724;49.910;12.530;2023-06-10T10:02:18;10.30;;;9.80;;
1460;SDS011;724;49.910;12.530;2023-06-10T10:04:45;9.80;;;9.30;;
1460;SDS011;724;49.910;12.530;2023-06-10T10:07:13;10.30;;;9.80;;
1460;SDS011;724;49.910;12.530;2023-06-10T10:09:40;10.30;;;9.80;;
1460;SDS011;724;49.910;12.530;2023-06-10T10:12:11;10.60;;;10.00;;
1460;SDS011;724;49.910;12.530;2023-06-10T10:14:39;10.80;;;10.20;;
1460;SDS011;724;49.910;12.530;2023-06-10T10:17:10;10.60;;;10.00;;
1460;SDS011;724;49.910;12.530;2023-06-10T10:32:38;10.77;;;10.17;;
1460;SDS011;724;49.910;12.530;2023-06-10T10:35:11;10.30;;;9.80;;
1460;SDS011;724;49.910;12.530;2023-06-10T10:37:44;10.33;;;9.83;;
1460;SDS011;724;49.910;12.530;2023-06-10T10:40:13;11.00;;;10.40;;
1460;SDS011;724;49.910;12.530;2023-06-10T10:42:40;11.10;;;10.50;;
1460;SDS011;724;49.910;12.530;2023-06-10T10:45:08;10.30;;;9.80;;
1460;SDS011;724;49.910;12.530;2023-06-10T10:47:37;10.40;;;9.90;;
1460;SDS011;724;49.910;12.530;2023-06-10T10:50:12;10.90;;;10.30;;
1460;SDS011;724;49.910;12.530;2023-06-10T10:52:46;10.83;;;10.23;;
1460;SDS011;724;49.910;12.530;2023-06-10T10:55:18;10.90;;;10.30;;
1460;SDS011;724;49.910;12.530;2023-06-10T10:57:53;10.93;;;10.33;;
1460;SDS011;724;49.910;12.530;2023-06-10T11:00:24;9.90;;;9.40;;
1460;SDS011;724;49.910;12.530;2023-06-10T11:02:58;9.53;;;9.03;;
1460;SDS011;724;49.910;12.530;2023-06-10T11:05:35;9.90;;;9.40;;
1460;SDS011;724;49.910;12.530;2023-06-10T11:08:07;10.70;;;10.10;;
1460;SDS011;724;49.910;12.530;2023-06-10T11:10:35;11.10;;;10.50;;
1460;SDS011;724;49.910;12.530;2023-06-10T11:13:07;10.90;;;10.30;;
1460;SDS011;724;49.910;12.530;2023-06-10T11:15:37;10.97;;;10.37;;
1460;SDS011;724;49.910;12.530;2023-06-10T11:18:10;11.10;;;10.50;;
1460;SDS011;724;49.910;12.530;2023-06-10T11:20:46;11.10;;;10.50;;
1460;SDS011;724;49.910;12.530;2023-06-10T11:23:25;11.63;;;11.03;;
1460;SDS011;724;49.910;12.530;2023-06-10T11:26:09;11.40;;;10.80;;
1460;SDS011;724;49.910;12.530;2023-06-10T11:31:30;11.37;;;10.77;;
1460;SDS011;724;49.910;12.530;2023-06-10T11:33:59;10.83;;;10.23;;
1460;SDS011;724;49.910;12.530;2023-06-10T11:36:28;11.17;;;10.57;;
1460;SDS011;724;49.910;12.530;2023-06-10T11:38:55;10.93;;;10.33;;
1460;SDS011;724;49.910;12.530;2023-06-10T11:41:23;10.83;;;10.23;;
1460;SDS011;724;49.910;12.530;2023-06-10T11:43:52;11.17;;;10.57;;
1460;SDS011;724;49.910;12.530;2023-06-10T11:46:19;10.80;;;10.20;;
1460;SDS011;724;49.910;12.530;2023-06-10T11:48:49;11.07;;;10.47;;
1460;SDS011;724;49.910;12.530;2023-06-10T11:51:17;11.00;;;10.40;;
1460;SDS011;724;49.910;12.530;2023-06-10T11:53:44;11.60;;;11.00;;
1460;SDS011;724;49.910;12.530;2023-06-10T11:56:11;11.50;;;10.90;;
1460;SDS011;724;49.910;12.530;2023-06-10T11:58:39;11.40;;;10.80;;
1460;SDS011;724;49.910;12.530;2023-06-10T12:01:11;11.00;;;10.40;;
1460;SDS011;724;49.910;12.530;2023-06-10T12:03:45;10.80;;;10.20;;
1460;SDS011;724;49.910;12.530;2023-06-10T12:06:11;10.30;;;9.80;;
1460;SDS011;724;49.910;12.530;2023-06-10T12:08:42;11.13;;;10.53;;
1460;SDS011;724;49.910;12.530;2023-06-10T12:11:09;10.80;;;10.20;;
1460;SDS011;724;49.910;12.530;2023-06-10T12:13:36;10.80;;;10.20;;
1460;SDS011;724;49.910;12.530;2023-06-10T12:16:12;11.10;;;10.50;;
1460;SDS011;724;49.910;12.530;2023-06-10T12:18:38;11.10;;;10.50;;
1460;SDS011;724;49.910;12.530;2023-06-10T12:21:14;11.20;;;10.60;;
1460;SDS011;724;49.910;12.530;2023-06-10T12:26:34;11.50;;;10.90;;
1460;SDS011;724;49.910;12.530;2023-06-10T12:29:02;11.60;;;11.00;;
1460;SDS011;724;49.910;12.530;2023-06-10T12:31:51;10.70;;;10.10;;
1460;SDS011;724;49.910;12.530;2023-06-10T12:34:27;10.90;;;10.30;;
1460;SDS011;724;49.910;12.530;2023-06-10T12:37:02;11.33;;;10.73;;
1460;SDS011;724;49.910;12.530;2023-06-10T12:39:31;10.73;;;10.13;;
1460;SDS011;724;49.910;12.530;2023-06-10T12:41:59;10.80;;;10.20;;
1460;SDS011;724;49.910;12.530;2023-06-10T12:44:30;10.77;;;10.17;;
1460;SDS011;724;49.910;12.530;2023-06-10T12:47:01;11.37;;;10.77;;
1460;SDS011;724;49.910;12.530;2023-06-10T12:49:33;10.70;;;10.10;;
1460;SDS011;724;49.910;12.530;2023-06-10T12:52:00;10.70;;;10.10;;
1460;SDS011;724;49.910;12.530;2023-06-10T12:54:27;10.70;;;10.10;;
1460;SDS011;724;49.910;12.530;2023-06-10T12:56:56;10.20;;;9.70;;
1460;SDS011;724;49.910;12.530;2023-06-10T12:59:22;10.40;;;9.90;;
1460;SDS011;724;49.910;12.530;2023-06-10T13:01:50;10.63;;;10.03;;
1460;SDS011;724;49.910;12.530;2023-06-10T13:04:17;9.90;;;9.40;;
1460;SDS011;724;49.910;12.530;2023-06-10T13:06:44;10.27;;;9.77;;
1460;SDS011;724;49.910;12.530;2023-06-10T13:09:11;10.20;;;9.70;;
1460;SDS011;724;49.910;12.530;2023-06-10T13:11:38;10.00;;;9.50;;
1460;SDS011;724;49.910;12.530;2023-06-10T13:14:08;10.30;;;9.80;;
1460;SDS011;724;49.910;12.530;2023-06-10T13:16:36;10.60;;;10.00;;
1460;SDS011;724;49.910;12.530;2023-06-10T13:19:05;9.70;;;9.20;;
1460;SDS011;724;49.910;12.530;2023-06-10T13:21:32;9.60;;;9.10;;
1460;SDS011;724;49.910;12.530;2023-06-10T13:24:00;10.60;;;10.00;;
1460;SDS011;724;49.910;12.530;2023-06-10T13:26:27;10.30;;;9.80;;
1460;SDS011;724;49.910;12.530;2023-06-10T13:28:56;9.83;;;9.33;;
1460;SDS011;724;49.910;12.530;2023-06-10T13:31:24;9.70;;;9.20;;
1460;SDS011;724;49.910;12.530;2023-06-10T13:33:51;9.30;;;8.80;;
1460;SDS011;724;49.910;12.530;2023-06-10T13:36:18;9.70;;;9.20;;
1460;SDS011;724;49.910;12.530;2023-06-10T13:38:45;9.27;;;8.77;;
1460;SDS011;724;49.910;12.530;2023-06-10T13:41:12;10.10;;;9.60;;
1460;SDS011;724;49.910;12.530;2023-06-10T13:43:39;10.67;;;10.07;;
1460;SDS011;724;49.910;12.530;2023-06-10T13:46:06;10.00;;;9.50;;
1460;SDS011;724;49.910;12.530;2023-06-10T13:48:34;11.07;;;10.47;;
1460;SDS011;724;49.910;12.530;2023-06-10T13:51:01;10.70;;;10.10;;
1460;SDS011;724;49.910;12.530;2023-06-10T13:53:30;10.10;;;9.60;;
1460;SDS011;724;49.910;12.530;2023-06-10T13:55:56;10.60;;;10.00;;
1460;SDS011;724;49.910;12.530;2023-06-10T13:58:23;11.20;;;10.60;;
1460;SDS011;724;49.910;12.530;2023-06-10T14:00:50;10.70;;;10.10;;
1460;SDS011;724;49.910;12.530;2023-06-10T14:03:18;9.93;;;9.43;;
1460;SDS011;724;49.910;12.530;2023-06-10T14:05:46;9.80;;;9.30;;
1460;SDS011;724;49.910;12.530;2023-06-10T14:08:13;9.57;;;9.07;;
1460;SDS011;724;49.910;12.530;2023-06-10T14:10:39;9.80;;;9.30;;
1460;SDS011;724;49.910;12.530;2023-06-10T14:13:06;9.80;;;9.30;;
1460;SDS011;724;49.910;12.530;2023-06-10T14:15:33;9.80;;;9.30;;
1460;SDS011;724;49.910;12.530;2023-06-10T14:18:00;11.00;;;10.40;;
1460;SDS011;724;49.910;12.530;2023-06-10T14:20:27;10.10;;;9.60;;
1460;SDS011;724;49.910;12.530;2023-06-10T14:22:57;10.90;;;10.30;;
1460;SDS011;724;49.910;12.530;2023-06-10T14:25:24;10.77;;;10.17;;
1460;SDS011;724;49.910;12.530;2023-06-10T14:27:51;10.30;;;9.80;;
1460;SDS011;724;49.910;12.530;2023-06-10T14:30:18;9.80;;;9.30;;
1460;SDS011;724;49.910;12.530;2023-06-10T14:32:45;10.40;;;9.90;;
1460;SDS011;724;49.910;12.530;2023-06-10T14:35:12;11.00;;;10.40;;
1460;SDS011;724;49.910;12.530;2023-06-10T14:37:38;10.63;;;10.03;;
1460;SDS011;724;49.910;12.530;2023-06-10T14:40:07;10.87;;;10.27;;
1460;SDS011;724;49.910;12.530;2023-06-10T14:42:35;11.03;;;10.43;;
1460;SDS011;724;49.910;12.530;2023-06-10T14:45:01;11.37;;;10.77;;
1460;SDS011;724;49.910;12.530;2023-06-10T14:47:29;10.30;;;9.80;;
1460;SDS011;724;49.910;12.530;2023-06-10T14:49:56;10.70;;;10.10;;
1460;SDS011;724;49.910;12.530;2023-06-10T14:52:22;11.00;;;10.40;;
1460;SDS011;724;49.910;12.530;2023-06-10T14:54:49;10.80;;;10.20;;
1460;SDS011;724;49.910;12.530;2023-06-10T14:57:17;11.17;;;10.57;;
1460;SDS011;724;49.910;12.530;2023-06-10T14:59:44;11.20;;;10.60;;
1460;SDS011;724;49.910;12.530;2023-06-10T15:02:11;11.10;;;10.50;;
1460;SDS011;724;49.910;12.530;2023-06-10T15:04:38;11.17;;;10.57;;
1460;SDS011;724;49.910;12.530;2023-06-10T15:07:04;11.17;;;10.57;;
1460;SDS011;724;49.910;12.530;2023-06-10T15:09:31;10.70;;;10.10;;
1460;SDS011;724;49.910;12.530;2023-06-10T15:11:58;11.00;;;10.40;;
1460;SDS011;724;49.910;12.530;2023-06-10T15:14:27;10.63;;;10.03;;
1460;SDS011;724;49.910;12.530;2023-06-10T15:16:54;10.60;;;10.00;;
1460;SDS011;724;49.910;12.530;2023-06-10T15:19:23;10.77;;;10.17;;
1460;SDS011;724;49.910;12.530;2023-06-10T15:21:50;11.00;;;10.40;;
1460;SDS011;724;49.910;12.530;2023-06-10T15:24:16;10.33;;;9.83;;
1460;SDS011;724;49.910;12.530;2023-06-10T15:26:43;11.20;;;10.60;;